sensor_id;sensor_type;location;lat;lon;timestamp;P1;durP1;ratioP1;P2;durP2;ratioP2
59972;SDS011;55298;-36.624;-64.282;2023-03-19T00:00:32;9.38;;;7.53;;
59972;SDS011;55298;-36.624;-64.282;2023-03-19T00:03:00;10.45;;;6.55;;
59972;SDS011;55298;-36.624;-64.282;2023-03-19T00:05:28;7.82;;;6.18;;
59972;SDS011;55298;-36.624;-64.282;2023-03-19T00:07:55;6.10;;;5.50;;
59972;SDS011;55298;-36.624;-64.282;2023-03-19T00:10:23;6.93;;;5.38;;
59972;SDS011;55298;-36.624;-64.282;2023-03-19T00:12:51;8.77;;;6.30;;
59972;SDS011;55298;-36.624;-64.282;2023-03-19T00:15:18;8.73;;;6.30;;
59972;SDS011;55298;-36.624;-64.282;2023-03-19T00:17:46;7.28;;;5.95;;
59972;SDS011;55298;-36.624;-64.282;2023-03-19T00:20:14;8.90;;;6.35;;
59972;SDS011;55298;-36.624;-64.282;2023-03-19T00:22:42;7.72;;;5.68;;
59972;SDS011;55298;-36.624;-64.282;2023-03-19T00:25:10;10.15;;;6.45;;
59972;SDS011;55298;-36.624;-64.282;2023-03-19T00:27:38;8.10;;;5.80;;
59972;SDS011;55298;-36.624;-64.282;2023-03-19T00:30:07;7.63;;;5.25;;
59972;SDS011;55298;-36.624;-64.282;2023-03-19T00:32:36;8.68;;;5.55;;
59972;SDS011;55298;-36.624;-64.282;2023-03-19T00:35:04;12.85;;;5.97;;
59972;SDS011;55298;-36.624;-64.282;2023-03-19T00:37:33;7.85;;;5.35;;
59972;SDS011;55298;-36.624;-64.282;2023-03-19T00:40:02;7.07;;;5.20;;
59972;SDS011;55298;-36.624;-64.282;2023-03-19T00:42:31;5.55;;;4.13;;
59972;SDS011;55298;-36.624;-64.282;2023-03-19T00:44:59;7.57;;;5.82;;
59972;SDS011;55298;-36.624;-64.282;2023-03-19T00:47:26;6.30;;;4.65;;
59972;SDS011;55298;-36.624;-64.282;2023-03-19T00:49:54;6.28;;;4.97;;
59972;SDS011;55298;-36.624;-64.282;2023-03-19T00:52:22;7.55;;;5.50;;
59972;SDS011;55298;-36.624;-64.282;2023-03-19T00:54:50;6.13;;;4.63;;
59972;SDS011;55298;-36.624;-64.282;2023-03-19T00:57:18;6.47;;;4.70;;
59972;SDS011;55298;-36.624;-64.282;2023-03-19T00:59:45;7.20;;;5.22;;
59972;SDS011;55298;-36.624;-64.282;2023-03-19T01:02:13;9.48;;;5.88;;
59972;SDS011;55298;-36.624;-64.282;2023-03-19T01:04:42;7.25;;;5.82;;
59972;SDS011;55298;-36.624;-64.282;2023-03-19T01:07:10;7.97;;;5.40;;
59972;SDS011;55298;-36.624;-64.282;2023-03-19T01:09:37;6.30;;;4.90;;
59972;SDS011;55298;-36.624;-64.282;2023-03-19T01:12:06;4.32;;;3.85;;
59972;SDS011;55298;-36.624;-64.282;2023-03-19T01:14:35;4.72;;;4.13;;
59972;SDS011;55298;-36.624;-64.282;2023-03-19T01:17:03;4.28;;;3.70;;
59972;SDS011;55298;-36.624;-64.282;2023-03-19T01:19:31;3.97;;;2.58;;
59972;SDS011;55298;-36.624;-64.282;2023-03-19T01:21:59;5.07;;;3.30;;
59972;SDS011;55298;-36.624;-64.282;2023-03-19T01:24:29;2.95;;;2.75;;
59972;SDS011;55298;-36.624;-64.282;2023-03-19T01:26:57;4.32;;;3.92;;
59972;SDS011;55298;-36.624;-64.282;2023-03-19T01:29:25;3.67;;;2.40;;
59972;SDS011;55298;-36.624;-64.282;2023-03-19T01:31:53;4.63;;;3.10;;
59972;SDS011;55298;-36.624;-64.282;2023-03-19T01:34:21;4.00;;;2.75;;
59972;SDS011;55298;-36.624;-64.282;2023-03-19T01:36:49;3.50;;;3.30;;
59972;SDS011;55298;-36.624;-64.282;2023-03-19T01:39:18;4.57;;;2.50;;
59972;SDS011;55298;-36.624;-64.282;2023-03-19T01:41:47;2.95;;;2.55;;
59972;SDS011;55298;-36.624;-64.282;2023-03-19T01:46:56;3.28;;;2.70;;
59972;SDS011;55298;-36.624;-64.282;2023-03-19T01:49:24;4.90;;;2.60;;
59972;SDS011;55298;-36.624;-64.282;2023-03-19T01:51:53;5.35;;;3.03;;
59972;SDS011;55298;-36.624;-64.282;2023-03-19T01:54:23;2.97;;;2.70;;
59972;SDS011;55298;-36.624;-64.282;2023-03-19T01:56:56;3.70;;;2.60;;
59972;SDS011;55298;-36.624;-64.282;2023-03-19T01:59:29;2.60;;;2.38;;
59972;SDS011;55298;-36.624;-64.282;2023-03-19T02:02:03;2.83;;;2.10;;
59972;SDS011;55298;-36.624;-64.282;2023-03-19T02:04:50;2.22;;;2.05;;
59972;SDS011;55298;-36.624;-64.282;2023-03-19T02:07:21;2.60;;;2.33;;
59972;SDS011;55298;-36.624;-64.282;2023-03-19T02:09:50;2.58;;;2.38;;
59972;SDS011;55298;-36.624;-64.282;2023-03-19T02:12:17;4.90;;;2.72;;
59972;SDS011;55298;-36.624;-64.282;2023-03-19T02:14:45;2.50;;;2.40;;
59972;SDS011;55298;-36.624;-64.282;2023-03-19T02:17:13;2.53;;;2.33;;
59972;SDS011;55298;-36.624;-64.282;2023-03-19T02:19:48;3.85;;;2.47;;
59972;SDS011;55298;-36.624;-64.282;2023-03-19T02:22:40;4.25;;;2.75;;
59972;SDS011;55298;-36.624;-64.282;2023-03-19T02:25:40;3.05;;;2.47;;
59972;SDS011;55298;-36.624;-64.282;2023-03-19T02:28:05;4.28;;;2.72;;
59972;SDS011;55298;-36.624;-64.282;2023-03-19T02:30:34;2.63;;;2.10;;
59972;SDS011;55298;-36.624;-64.282;2023-03-19T02:33:03;3.13;;;2.20;;
59972;SDS011;55298;-36.624;-64.282;2023-03-19T02:35:31;3.25;;;2.95;;
59972;SDS011;55298;-36.624;-64.282;2023-03-19T02:38:01;2.88;;;2.30;;
59972;SDS011;55298;-36.624;-64.282;2023-03-19T02:40:43;4.13;;;2.20;;
59972;SDS011;55298;-36.624;-64.282;2023-03-19T02:43:23;4.22;;;2.28;;
59972;SDS011;55298;-36.624;-64.282;2023-03-19T02:45:51;4.50;;;2.15;;
59972;SDS011;55298;-36.624;-64.282;2023-03-19T02:48:20;3.33;;;2.42;;
59972;SDS011;55298;-36.624;-64.282;2023-03-19T02:50:48;2.30;;;2.10;;
59972;SDS011;55298;-36.624;-64.282;2023-03-19T02:53:16;3.42;;;2.40;;
59972;SDS011;55298;-36.624;-64.282;2023-03-19T02:55:44;5.35;;;2.28;;
59972;SDS011;55298;-36.624;-64.282;2023-03-19T02:58:12;3.42;;;2.30;;
59972;SDS011;55298;-36.624;-64.282;2023-03-19T03:00:40;3.35;;;2.13;;
59972;SDS011;55298;-36.624;-64.282;2023-03-19T03:03:08;4.95;;;2.53;;
59972;SDS011;55298;-36.624;-64.282;2023-03-19T03:05:36;7.25;;;2.50;;
59972;SDS011;55298;-36.624;-64.282;2023-03-19T03:08:04;4.35;;;2.33;;
59972;SDS011;55298;-36.624;-64.282;2023-03-19T03:10:32;4.65;;;2.50;;
59972;SDS011;55298;-36.624;-64.282;2023-03-19T03:13:00;5.93;;;2.78;;
59972;SDS011;55298;-36.624;-64.282;2023-03-19T03:15:28;4.82;;;2.40;;
59972;SDS011;55298;-36.624;-64.282;2023-03-19T03:17:55;4.70;;;2.30;;
59972;SDS011;55298;-36.624;-64.282;2023-03-19T03:20:23;7.85;;;2.60;;
59972;SDS011;55298;-36.624;-64.282;2023-03-19T03:22:51;3.83;;;2.83;;
59972;SDS011;55298;-36.624;-64.282;2023-03-19T03:25:18;6.72;;;2.80;;
59972;SDS011;55298;-36.624;-64.282;2023-03-19T03:27:47;3.75;;;2.42;;
59972;SDS011;55298;-36.624;-64.282;2023-03-19T03:30:15;3.70;;;2.50;;
59972;SDS011;55298;-36.624;-64.282;2023-03-19T03:32:43;4.18;;;2.20;;
59972;SDS011;55298;-36.624;-64.282;2023-03-19T03:35:11;3.15;;;2.47;;
59972;SDS011;55298;-36.624;-64.282;2023-03-19T03:37:47;2.50;;;2.30;;
59972;SDS011;55298;-36.624;-64.282;2023-03-19T03:40:15;2.28;;;2.08;;
59972;SDS011;55298;-36.624;-64.282;2023-03-19T03:42:43;2.63;;;2.30;;
59972;SDS011;55298;-36.624;-64.282;2023-03-19T03:45:11;3.80;;;2.20;;
59972;SDS011;55298;-36.624;-64.282;2023-03-19T03:47:39;2.47;;;2.00;;
59972;SDS011;55298;-36.624;-64.282;2023-03-19T03:50:07;2.67;;;2.30;;
59972;SDS011;55298;-36.624;-64.282;2023-03-19T03:52:37;2.60;;;2.30;;
59972;SDS011;55298;-36.624;-64.282;2023-03-19T03:55:06;2.85;;;2.00;;
59972;SDS011;55298;-36.624;-64.282;2023-03-19T03:57:35;2.53;;;2.33;;
59972;SDS011;55298;-36.624;-64.282;2023-03-19T04:00:03;2.42;;;2.17;;
59972;SDS011;55298;-36.624;-64.282;2023-03-19T04:02:31;2.42;;;2.05;;
59972;SDS011;55298;-36.624;-64.282;2023-03-19T04:04:58;2.40;;;2.30;;
59972;SDS011;55298;-36.624;-64.282;2023-03-19T04:07:26;2.00;;;1.90;;
59972;SDS011;55298;-36.624;-64.282;2023-03-19T04:09:55;2.50;;;2.30;;
59972;SDS011;55298;-36.624;-64.282;2023-03-19T04:12:23;2.97;;;2.50;;
59972;SDS011;55298;-36.624;-64.282;2023-03-19T04:14:51;2.53;;;2.33;;
59972;SDS011;55298;-36.624;-64.282;2023-03-19T04:17:19;2.50;;;2.40;;
59972;SDS011;55298;-36.624;-64.282;2023-03-19T04:19:47;2.47;;;2.38;;
59972;SDS011;55298;-36.624;-64.282;2023-03-19T04:22:15;3.50;;;2.92;;
59972;SDS011;55298;-36.624;-64.282;2023-03-19T04:24:43;2.30;;;2.20;;
59972;SDS011;55298;-36.624;-64.282;2023-03-19T04:27:11;2.50;;;2.30;;
59972;SDS011;55298;-36.624;-64.282;2023-03-19T04:29:39;2.88;;;2.00;;
59972;SDS011;55298;-36.624;-64.282;2023-03-19T04:32:06;2.50;;;2.40;;
59972;SDS011;55298;-36.624;-64.282;2023-03-19T04:34:34;2.55;;;2.40;;
59972;SDS011;55298;-36.624;-64.282;2023-03-19T04:37:02;2.17;;;2.08;;
59972;SDS011;55298;-36.624;-64.282;2023-03-19T04:39:30;2.53;;;2.33;;
59972;SDS011;55298;-36.624;-64.282;2023-03-19T04:41:58;2.30;;;2.10;;
59972;SDS011;55298;-36.624;-64.282;2023-03-19T04:44:26;2.47;;;2.28;;
59972;SDS011;55298;-36.624;-64.282;2023-03-19T04:46:53;2.40;;;2.30;;
59972;SDS011;55298;-36.624;-64.282;2023-03-19T04:49:21;2.25;;;2.13;;
59972;SDS011;55298;-36.624;-64.282;2023-03-19T04:51:50;3.05;;;2.15;;
59972;SDS011;55298;-36.624;-64.282;2023-03-19T04:54:18;2.65;;;2.40;;
59972;SDS011;55298;-36.624;-64.282;2023-03-19T04:56:45;2.17;;;2.08;;
59972;SDS011;55298;-36.624;-64.282;2023-03-19T04:59:13;2.00;;;1.90;;
59972;SDS011;55298;-36.624;-64.282;2023-03-19T05:01:41;2.22;;;2.13;;
59972;SDS011;55298;-36.624;-64.282;2023-03-19T05:04:09;2.00;;;1.90;;
59972;SDS011;55298;-36.624;-64.282;2023-03-19T05:06:37;2.50;;;2.30;;
59972;SDS011;55298;-36.624;-64.282;2023-03-19T05:09:05;2.08;;;1.98;;
59972;SDS011;55298;-36.624;-64.282;2023-03-19T05:11:33;2.10;;;2.00;;
59972;SDS011;55298;-36.624;-64.282;2023-03-19T05:14:01;2.42;;;2.33;;
59972;SDS011;55298;-36.624;-64.282;2023-03-19T05:16:30;2.40;;;2.30;;
59972;SDS011;55298;-36.624;-64.282;2023-03-19T05:18:59;2.60;;;2.40;;
59972;SDS011;55298;-36.624;-64.282;2023-03-19T05:21:26;2.55;;;2.35;;
59972;SDS011;55298;-36.624;-64.282;2023-03-19T05:23:54;2.45;;;2.25;;
59972;SDS011;55298;-36.624;-64.282;2023-03-19T05:26:23;2.30;;;2.20;;
59972;SDS011;55298;-36.624;-64.282;2023-03-19T05:28:51;2.45;;;2.35;;
59972;SDS011;55298;-36.624;-64.282;2023-03-19T05:31:18;3.35;;;2.42;;
59972;SDS011;55298;-36.624;-64.282;2023-03-19T05:33:49;2.22;;;2.13;;
59972;SDS011;55298;-36.624;-64.282;2023-03-19T05:36:17;2.55;;;2.45;;
59972;SDS011;55298;-36.624;-64.282;2023-03-19T05:38:45;3.30;;;3.00;;
59972;SDS011;55298;-36.624;-64.282;2023-03-19T05:41:12;2.38;;;2.28;;
59972;SDS011;55298;-36.624;-64.282;2023-03-19T05:43:40;3.50;;;3.20;;
59972;SDS011;55298;-36.624;-64.282;2023-03-19T05:46:08;2.97;;;2.78;;
59972;SDS011;55298;-36.624;-64.282;2023-03-19T05:48:36;2.80;;;2.60;;
59972;SDS011;55298;-36.624;-64.282;2023-03-19T05:51:04;3.47;;;2.90;;
59972;SDS011;55298;-36.624;-64.282;2023-03-19T05:53:31;3.40;;;3.20;;
59972;SDS011;55298;-36.624;-64.282;2023-03-19T05:55:59;3.53;;;3.28;;
59972;SDS011;55298;-36.624;-64.282;2023-03-19T05:58:27;3.78;;;3.55;;
59972;SDS011;55298;-36.624;-64.282;2023-03-19T06:00:55;4.00;;;3.67;;
59972;SDS011;55298;-36.624;-64.282;2023-03-19T06:03:23;4.50;;;4.10;;
59972;SDS011;55298;-36.624;-64.282;2023-03-19T06:05:52;4.43;;;4.07;;
59972;SDS011;55298;-36.624;-64.282;2023-03-19T06:08:19;4.68;;;4.28;;
59972;SDS011;55298;-36.624;-64.282;2023-03-19T06:10:47;5.38;;;4.88;;
59972;SDS011;55298;-36.624;-64.282;2023-03-19T06:13:16;5.35;;;4.43;;
59972;SDS011;55298;-36.624;-64.282;2023-03-19T06:15:44;5.50;;;5.00;;
59972;SDS011;55298;-36.624;-64.282;2023-03-19T06:18:12;4.97;;;4.47;;
59972;SDS011;55298;-36.624;-64.282;2023-03-19T06:20:41;5.10;;;4.70;;
59972;SDS011;55298;-36.624;-64.282;2023-03-19T06:23:09;6.00;;;5.40;;
59972;SDS011;55298;-36.624;-64.282;2023-03-19T06:25:37;5.03;;;4.63;;
59972;SDS011;55298;-36.624;-64.282;2023-03-19T06:28:05;5.72;;;5.22;;
59972;SDS011;55298;-36.624;-64.282;2023-03-19T06:30:33;5.70;;;5.20;;
59972;SDS011;55298;-36.624;-64.282;2023-03-19T06:33:00;6.93;;;5.78;;
59972;SDS011;55298;-36.624;-64.282;2023-03-19T06:35:28;5.72;;;5.32;;
59972;SDS011;55298;-36.624;-64.282;2023-03-19T06:37:57;6.22;;;5.63;;
59972;SDS011;55298;-36.624;-64.282;2023-03-19T06:40:25;6.65;;;6.05;;
59972;SDS011;55298;-36.624;-64.282;2023-03-19T06:42:52;6.68;;;6.03;;
59972;SDS011;55298;-36.624;-64.282;2023-03-19T06:45:21;6.07;;;5.57;;
59972;SDS011;55298;-36.624;-64.282;2023-03-19T06:47:49;5.45;;;5.05;;
59972;SDS011;55298;-36.624;-64.282;2023-03-19T06:50:17;6.63;;;5.80;;
59972;SDS011;55298;-36.624;-64.282;2023-03-19T06:52:45;7.03;;;6.45;;
59972;SDS011;55298;-36.624;-64.282;2023-03-19T06:55:12;6.88;;;6.07;;
59972;SDS011;55298;-36.624;-64.282;2023-03-19T06:57:40;8.02;;;6.60;;
59972;SDS011;55298;-36.624;-64.282;2023-03-19T07:00:08;6.32;;;5.80;;
59972;SDS011;55298;-36.624;-64.282;2023-03-19T07:02:37;5.85;;;5.40;;
59972;SDS011;55298;-36.624;-64.282;2023-03-19T07:05:05;8.45;;;6.03;;
59972;SDS011;55298;-36.624;-64.282;2023-03-19T07:07:33;10.70;;;6.72;;
59972;SDS011;55298;-36.624;-64.282;2023-03-19T07:10:01;6.10;;;5.60;;
59972;SDS011;55298;-36.624;-64.282;2023-03-19T07:12:29;6.55;;;5.95;;
59972;SDS011;55298;-36.624;-64.282;2023-03-19T07:14:57;6.90;;;6.30;;
59972;SDS011;55298;-36.624;-64.282;2023-03-19T07:17:24;7.45;;;6.65;;
59972;SDS011;55298;-36.624;-64.282;2023-03-19T07:19:52;6.63;;;6.03;;
59972;SDS011;55298;-36.624;-64.282;2023-03-19T07:22:20;6.85;;;6.25;;
59972;SDS011;55298;-36.624;-64.282;2023-03-19T07:24:48;6.30;;;5.72;;
59972;SDS011;55298;-36.624;-64.282;2023-03-19T07:27:16;5.43;;;5.03;;
59972;SDS011;55298;-36.624;-64.282;2023-03-19T07:29:43;4.75;;;4.35;;
59972;SDS011;55298;-36.624;-64.282;2023-03-19T07:32:11;5.65;;;5.15;;
59972;SDS011;55298;-36.624;-64.282;2023-03-19T07:34:39;6.15;;;5.55;;
59972;SDS011;55298;-36.624;-64.282;2023-03-19T07:37:07;4.45;;;4.10;;
59972;SDS011;55298;-36.624;-64.282;2023-03-19T07:39:34;5.00;;;4.60;;
59972;SDS011;55298;-36.624;-64.282;2023-03-19T07:42:02;4.75;;;4.25;;
59972;SDS011;55298;-36.624;-64.282;2023-03-19T07:44:30;5.45;;;4.95;;
59972;SDS011;55298;-36.624;-64.282;2023-03-19T07:46:58;5.03;;;4.72;;
59972;SDS011;55298;-36.624;-64.282;2023-03-19T07:49:26;4.18;;;3.88;;
59972;SDS011;55298;-36.624;-64.282;2023-03-19T07:51:53;6.75;;;5.35;;
59972;SDS011;55298;-36.624;-64.282;2023-03-19T07:54:21;5.38;;;4.97;;
59972;SDS011;55298;-36.624;-64.282;2023-03-19T07:56:49;5.50;;;5.05;;
59972;SDS011;55298;-36.624;-64.282;2023-03-19T07:59:16;5.55;;;4.90;;
59972;SDS011;55298;-36.624;-64.282;2023-03-19T08:01:44;5.70;;;5.20;;
59972;SDS011;55298;-36.624;-64.282;2023-03-19T08:04:12;5.90;;;5.40;;
59972;SDS011;55298;-36.624;-64.282;2023-03-19T08:06:39;4.93;;;4.53;;
59972;SDS011;55298;-36.624;-64.282;2023-03-19T08:09:07;5.93;;;5.43;;
59972;SDS011;55298;-36.624;-64.282;2023-03-19T08:11:36;5.93;;;5.43;;
59972;SDS011;55298;-36.624;-64.282;2023-03-19T08:14:04;5.25;;;4.85;;
59972;SDS011;55298;-36.624;-64.282;2023-03-19T08:16:31;6.43;;;5.68;;
59972;SDS011;55298;-36.624;-64.282;2023-03-19T08:18:59;6.22;;;5.63;;
59972;SDS011;55298;-36.624;-64.282;2023-03-19T08:21:27;6.75;;;6.15;;
59972;SDS011;55298;-36.624;-64.282;2023-03-19T08:23:58;7.60;;;6.80;;
59972;SDS011;55298;-36.624;-64.282;2023-03-19T08:26:25;8.52;;;6.95;;
59972;SDS011;55298;-36.624;-64.282;2023-03-19T08:28:53;6.32;;;5.82;;
59972;SDS011;55298;-36.624;-64.282;2023-03-19T08:31:21;9.05;;;7.25;;
59972;SDS011;55298;-36.624;-64.282;2023-03-19T08:33:48;7.35;;;6.57;;
59972;SDS011;55298;-36.624;-64.282;2023-03-19T08:36:16;6.32;;;5.65;;
59972;SDS011;55298;-36.624;-64.282;2023-03-19T08:38:44;7.68;;;6.85;;
59972;SDS011;55298;-36.624;-64.282;2023-03-19T08:41:12;6.43;;;5.85;;
59972;SDS011;55298;-36.624;-64.282;2023-03-19T08:43:40;7.65;;;6.80;;
59972;SDS011;55298;-36.624;-64.282;2023-03-19T08:46:07;6.70;;;6.10;;
59972;SDS011;55298;-36.624;-64.282;2023-03-19T08:48:35;7.80;;;6.82;;
59972;SDS011;55298;-36.624;-64.282;2023-03-19T08:51:03;7.72;;;6.80;;
59972;SDS011;55298;-36.624;-64.282;2023-03-19T08:53:32;8.75;;;7.10;;
59972;SDS011;55298;-36.624;-64.282;2023-03-19T08:56:00;6.10;;;5.60;;
59972;SDS011;55298;-36.624;-64.282;2023-03-19T08:58:30;7.00;;;6.38;;
59972;SDS011;55298;-36.624;-64.282;2023-03-19T09:01:00;7.57;;;6.28;;
59972;SDS011;55298;-36.624;-64.282;2023-03-19T09:03:29;6.70;;;6.10;;
59972;SDS011;55298;-36.624;-64.282;2023-03-19T09:05:58;6.70;;;6.10;;
59972;SDS011;55298;-36.624;-64.282;2023-03-19T09:08:26;5.97;;;5.50;;
59972;SDS011;55298;-36.624;-64.282;2023-03-19T09:10:55;6.40;;;5.80;;
59972;SDS011;55298;-36.624;-64.282;2023-03-19T09:13:23;6.28;;;5.68;;
59972;SDS011;55298;-36.624;-64.282;2023-03-19T09:15:51;6.90;;;6.30;;
59972;SDS011;55298;-36.624;-64.282;2023-03-19T09:18:19;7.50;;;6.57;;
59972;SDS011;55298;-36.624;-64.282;2023-03-19T09:20:50;7.45;;;6.70;;
59972;SDS011;55298;-36.624;-64.282;2023-03-19T09:23:19;7.40;;;6.57;;
59972;SDS011;55298;-36.624;-64.282;2023-03-19T09:25:47;7.45;;;6.72;;
59972;SDS011;55298;-36.624;-64.282;2023-03-19T09:28:16;7.32;;;6.63;;
59972;SDS011;55298;-36.624;-64.282;2023-03-19T09:30:44;7.85;;;7.13;;
59972;SDS011;55298;-36.624;-64.282;2023-03-19T09:33:13;8.43;;;7.63;;
59972;SDS011;55298;-36.624;-64.282;2023-03-19T09:35:42;9.00;;;7.30;;
59972;SDS011;55298;-36.624;-64.282;2023-03-19T09:38:14;8.75;;;7.72;;
59972;SDS011;55298;-36.624;-64.282;2023-03-19T09:40:43;8.45;;;7.65;;
59972;SDS011;55298;-36.624;-64.282;2023-03-19T09:43:20;12.43;;;8.45;;
59972;SDS011;55298;-36.624;-64.282;2023-03-19T09:46:02;9.40;;;7.95;;
59972;SDS011;55298;-36.624;-64.282;2023-03-19T09:48:45;14.10;;;9.00;;
59972;SDS011;55298;-36.624;-64.282;2023-03-19T09:51:32;9.70;;;7.93;;
59972;SDS011;55298;-36.624;-64.282;2023-03-19T09:54:14;7.72;;;6.50;;
59972;SDS011;55298;-36.624;-64.282;2023-03-19T09:56:51;7.30;;;6.55;;
59972;SDS011;55298;-36.624;-64.282;2023-03-19T09:59:20;8.57;;;7.57;;
59972;SDS011;55298;-36.624;-64.282;2023-03-19T10:01:54;8.60;;;7.55;;
59972;SDS011;55298;-36.624;-64.282;2023-03-19T10:04:38;8.65;;;7.75;;
59972;SDS011;55298;-36.624;-64.282;2023-03-19T10:07:31;9.38;;;7.90;;
59972;SDS011;55298;-36.624;-64.282;2023-03-19T10:13:14;8.02;;;7.22;;
59972;SDS011;55298;-36.624;-64.282;2023-03-19T10:16:04;8.73;;;7.32;;
59972;SDS011;55298;-36.624;-64.282;2023-03-19T10:18:37;8.40;;;6.70;;
59972;SDS011;55298;-36.624;-64.282;2023-03-19T10:21:15;6.65;;;6.05;;
59972;SDS011;55298;-36.624;-64.282;2023-03-19T10:24:14;6.75;;;6.05;;
59972;SDS011;55298;-36.624;-64.282;2023-03-19T10:27:00;6.15;;;5.55;;
59972;SDS011;55298;-36.624;-64.282;2023-03-19T10:29:34;5.00;;;4.50;;
59972;SDS011;55298;-36.624;-64.282;2023-03-19T10:32:13;6.10;;;5.20;;
59972;SDS011;55298;-36.624;-64.282;2023-03-19T10:34:46;5.97;;;5.30;;
59972;SDS011;55298;-36.624;-64.282;2023-03-19T10:37:19;5.70;;;5.10;;
59972;SDS011;55298;-36.624;-64.282;2023-03-19T10:39:51;6.68;;;5.45;;
59972;SDS011;55298;-36.624;-64.282;2023-03-19T10:47:52;6.13;;;5.63;;
59972;SDS011;55298;-36.624;-64.282;2023-03-19T10:50:27;5.80;;;5.30;;
59972;SDS011;55298;-36.624;-64.282;2023-03-19T10:53:05;5.47;;;4.97;;
59972;SDS011;55298;-36.624;-64.282;2023-03-19T10:55:55;5.30;;;4.80;;
59972;SDS011;55298;-36.624;-64.282;2023-03-19T10:58:29;4.88;;;4.38;;
59972;SDS011;55298;-36.624;-64.282;2023-03-19T11:01:07;5.30;;;4.70;;
59972;SDS011;55298;-36.624;-64.282;2023-03-19T11:03:39;5.97;;;4.40;;
59972;SDS011;55298;-36.624;-64.282;2023-03-19T11:06:19;5.07;;;4.68;;
59972;SDS011;55298;-36.624;-64.282;2023-03-19T11:11:33;5.15;;;4.75;;
59972;SDS011;55298;-36.624;-64.282;2023-03-19T11:19:42;4.88;;;4.47;;
59972;SDS011;55298;-36.624;-64.282;2023-03-19T11:22:19;5.13;;;4.45;;
59972;SDS011;55298;-36.624;-64.282;2023-03-19T11:24:55;6.32;;;5.35;;
59972;SDS011;55298;-36.624;-64.282;2023-03-19T11:27:31;5.13;;;4.53;;
59972;SDS011;55298;-36.624;-64.282;2023-03-19T11:30:03;5.32;;;4.70;;
59972;SDS011;55298;-36.624;-64.282;2023-03-19T11:35:47;6.60;;;5.20;;
59972;SDS011;55298;-36.624;-64.282;2023-03-19T11:38:29;5.70;;;5.05;;
59972;SDS011;55298;-36.624;-64.282;2023-03-19T11:41:13;5.93;;;5.32;;
59972;SDS011;55298;-36.624;-64.282;2023-03-19T11:44:10;6.03;;;5.15;;
59972;SDS011;55298;-36.624;-64.282;2023-03-19T11:49:48;6.22;;;5.30;;
59972;SDS011;55298;-36.624;-64.282;2023-03-19T11:55:32;5.30;;;4.70;;
59972;SDS011;55298;-36.624;-64.282;2023-03-19T11:58:20;4.15;;;3.85;;
59972;SDS011;55298;-36.624;-64.282;2023-03-19T12:01:05;4.25;;;3.90;;
59972;SDS011;55298;-36.624;-64.282;2023-03-19T12:06:44;3.70;;;3.40;;
59972;SDS011;55298;-36.624;-64.282;2023-03-19T12:15:02;4.47;;;4.18;;
59972;SDS011;55298;-36.624;-64.282;2023-03-19T12:17:46;5.65;;;4.18;;
59972;SDS011;55298;-36.624;-64.282;2023-03-19T12:20:31;4.35;;;3.95;;
59972;SDS011;55298;-36.624;-64.282;2023-03-19T12:26:00;4.18;;;3.88;;
59972;SDS011;55298;-36.624;-64.282;2023-03-19T12:28:34;4.38;;;3.97;;
59972;SDS011;55298;-36.624;-64.282;2023-03-19T12:31:33;4.47;;;4.07;;
59972;SDS011;55298;-36.624;-64.282;2023-03-19T12:37:00;5.18;;;4.60;;
59972;SDS011;55298;-36.624;-64.282;2023-03-19T12:39:39;4.80;;;4.40;;
59972;SDS011;55298;-36.624;-64.282;2023-03-19T12:42:16;5.20;;;4.80;;
59972;SDS011;55298;-36.624;-64.282;2023-03-19T12:44:48;5.20;;;4.80;;
59972;SDS011;55298;-36.624;-64.282;2023-03-19T12:47:25;4.78;;;4.38;;
59972;SDS011;55298;-36.624;-64.282;2023-03-19T12:49:58;5.15;;;4.60;;
59972;SDS011;55298;-36.624;-64.282;2023-03-19T12:52:39;5.13;;;4.63;;
59972;SDS011;55298;-36.624;-64.282;2023-03-19T12:55:15;4.57;;;4.28;;
59972;SDS011;55298;-36.624;-64.282;2023-03-19T12:57:52;4.90;;;4.50;;
59972;SDS011;55298;-36.624;-64.282;2023-03-19T13:00:31;5.93;;;4.97;;
59972;SDS011;55298;-36.624;-64.282;2023-03-19T13:05:52;6.70;;;5.00;;
59972;SDS011;55298;-36.624;-64.282;2023-03-19T13:08:33;8.27;;;4.78;;
59972;SDS011;55298;-36.624;-64.282;2023-03-19T13:11:12;5.07;;;4.57;;
59972;SDS011;55298;-36.624;-64.282;2023-03-19T13:13:48;4.68;;;4.28;;
59972;SDS011;55298;-36.624;-64.282;2023-03-19T13:19:13;4.50;;;4.20;;
59972;SDS011;55298;-36.624;-64.282;2023-03-19T13:21:53;4.53;;;4.13;;
59972;SDS011;55298;-36.624;-64.282;2023-03-19T13:24:28;3.85;;;3.60;;
59972;SDS011;55298;-36.624;-64.282;2023-03-19T13:27:03;4.50;;;4.03;;
59972;SDS011;55298;-36.624;-64.282;2023-03-19T13:29:34;3.35;;;3.15;;
59972;SDS011;55298;-36.624;-64.282;2023-03-19T13:34:50;4.03;;;3.20;;
59972;SDS011;55298;-36.624;-64.282;2023-03-19T13:37:54;3.63;;;3.40;;
59972;SDS011;55298;-36.624;-64.282;2023-03-19T13:46:01;8.80;;;4.95;;
59972;SDS011;55298;-36.624;-64.282;2023-03-19T13:48:34;6.00;;;3.47;;
59972;SDS011;55298;-36.624;-64.282;2023-03-19T13:51:08;4.23;;;3.70;;
59972;SDS011;55298;-36.624;-64.282;2023-03-19T13:53:53;4.60;;;3.97;;
59972;SDS011;55298;-36.624;-64.282;2023-03-19T13:57:30;4.32;;;4.03;;
59972;SDS011;55298;-36.624;-64.282;2023-03-19T13:59:41;3.83;;;3.55;;
59972;SDS011;55298;-36.624;-64.282;2023-03-19T14:05:17;4.20;;;3.30;;
59972;SDS011;55298;-36.624;-64.282;2023-03-19T14:07:47;4.70;;;3.15;;
59972;SDS011;55298;-36.624;-64.282;2023-03-19T14:12:50;3.47;;;3.17;;
59972;SDS011;55298;-36.624;-64.282;2023-03-19T14:15:27;5.55;;;3.80;;
59972;SDS011;55298;-36.624;-64.282;2023-03-19T14:17:58;3.50;;;3.20;;
59972;SDS011;55298;-36.624;-64.282;2023-03-19T14:20:30;4.00;;;3.72;;
59972;SDS011;55298;-36.624;-64.282;2023-03-19T14:23:10;3.65;;;3.30;;
59972;SDS011;55298;-36.624;-64.282;2023-03-19T14:26:01;3.97;;;3.67;;
59972;SDS011;55298;-36.624;-64.282;2023-03-19T14:28:37;4.88;;;4.47;;
59972;SDS011;55298;-36.624;-64.282;2023-03-19T14:31:29;4.47;;;4.18;;
59972;SDS011;55298;-36.624;-64.282;2023-03-19T14:34:23;4.90;;;4.50;;
59972;SDS011;55298;-36.624;-64.282;2023-03-19T14:36:57;5.28;;;4.28;;
59972;SDS011;55298;-36.624;-64.282;2023-03-19T14:39:31;4.93;;;4.05;;
59972;SDS011;55298;-36.624;-64.282;2023-03-19T14:42:11;9.15;;;5.68;;
59972;SDS011;55298;-36.624;-64.282;2023-03-19T14:47:45;4.90;;;3.70;;
59972;SDS011;55298;-36.624;-64.282;2023-03-19T14:53:37;5.90;;;4.97;;
59972;SDS011;55298;-36.624;-64.282;2023-03-19T14:56:13;4.50;;;4.10;;
59972;SDS011;55298;-36.624;-64.282;2023-03-19T14:58:48;3.83;;;3.63;;
59972;SDS011;55298;-36.624;-64.282;2023-03-19T15:01:19;5.40;;;4.90;;
59972;SDS011;55298;-36.624;-64.282;2023-03-19T15:03:53;7.55;;;5.03;;
59972;SDS011;55298;-36.624;-64.282;2023-03-19T15:06:24;5.03;;;4.63;;
59972;SDS011;55298;-36.624;-64.282;2023-03-19T15:08:58;4.78;;;4.25;;
59972;SDS011;55298;-36.624;-64.282;2023-03-19T15:11:31;5.10;;;4.60;;
59972;SDS011;55298;-36.624;-64.282;2023-03-19T15:14:16;4.80;;;4.40;;
59972;SDS011;55298;-36.624;-64.282;2023-03-19T15:19:41;6.07;;;5.50;;
59972;SDS011;55298;-36.624;-64.282;2023-03-19T15:22:14;7.32;;;5.55;;
59972;SDS011;55298;-36.624;-64.282;2023-03-19T15:24:47;5.63;;;4.15;;
59972;SDS011;55298;-36.624;-64.282;2023-03-19T15:27:17;5.05;;;4.63;;
59972;SDS011;55298;-36.624;-64.282;2023-03-19T15:29:48;5.18;;;4.72;;
59972;SDS011;55298;-36.624;-64.282;2023-03-19T15:34:57;5.13;;;4.72;;
59972;SDS011;55298;-36.624;-64.282;2023-03-19T15:37:26;5.60;;;5.10;;
59972;SDS011;55298;-36.624;-64.282;2023-03-19T15:39:56;5.63;;;5.13;;
59972;SDS011;55298;-36.624;-64.282;2023-03-19T15:42:28;3.63;;;3.42;;
59972;SDS011;55298;-36.624;-64.282;2023-03-19T15:45:00;4.70;;;4.30;;
59972;SDS011;55298;-36.624;-64.282;2023-03-19T15:47:34;4.15;;;3.83;;